Time;durP1;ratioP1;P1;durP2;ratioP2;P2;SDS_P1;SDS_P2;PMS_P1;PMS_P2;Temp;Humidity;BMP_temperature;BMP_pressure;BME280_temperature;BME280_humidity;BME280_pressure;Samples;Min_cycle;Max_cycle;Signal;HPM_P1;HPM_P2
2022/11/04 00:01:49;;;;;;;;;;;;;;;;;;6292027;28;20502;-69
2022/11/04 00:04:49;;;;;;;65.53;26.13;;;;;;;;;;6290356;28;19920;-66
2022/11/04 00:14:29;;;;;;;66.90;25.45;;;;;;;;;;6275581;28;20487;-66
2022/11/04 00:17:30;;;;;;;65.13;27.13;;;;;;;;;;6268326;28;20037;-69
2022/11/04 00:30:33;;;;;;;62.33;24.33;;;;;;;;;;6260425;28;20747;-69
2022/11/04 00:33:33;;;;;;;61.13;23.52;;;;;;;;;;6264015;28;20055;-67
2022/11/04 00:36:35;;;;;;;62.83;24.70;;;;;;;;;;6266325;28;20045;-69
2022/11/04 00:39:36;;;;;;;62.92;25.50;;;;;;;;;;6263565;28;20072;-68
2022/11/04 00:42:36;;;;;;;57.85;25.83;;;;;;;;;;6270220;28;20075;-68
2022/11/04 00:45:40;;;;;;;63.42;25.17;;;;;;;;;;6290255;28;20051;-70
2022/11/04 00:48:40;;;;;;;57.33;23.63;;;;;;;;;;6271968;28;20048;-66
2022/11/04 00:51:41;;;;;;;56.00;23.48;;;;;;;;;;6268279;28;20482;-66
2022/11/04 00:54:41;;;;;;;63.28;25.40;;;;;;;;;;6273000;28;20048;-66
2022/11/04 00:57:42;;;;;;;59.65;25.75;;;;;;;;;;6288617;28;20563;-67
2022/11/04 01:00:42;;;;;;;65.40;26.83;;;;;;;;;;6270260;28;20052;-66
2022/11/04 01:03:48;;;;;;;59.97;24.98;;;;;;;;;;6267396;28;20132;-66
2022/11/04 01:06:49;;;;;;;63.22;25.80;;;;;;;;;;6267316;28;20049;-69
2022/11/04 01:09:49;;;;;;;62.90;24.40;;;;;;;;;;6287247;28;20101;-66
2022/11/04 01:12:52;;;;;;;61.80;24.77;;;;;;;;;;6282068;28;20052;-68
2022/11/04 01:15:53;;;;;;;60.50;23.73;;;;;;;;;;6272925;28;20431;-65
2022/11/04 01:18:53;;;;;;;58.72;24.35;;;;;;;;;;6293180;28;20052;-66
2022/11/04 01:21:54;;;;;;;60.20;23.95;;;;;;;;;;6285265;28;20123;-68
2022/11/04 01:24:54;;;;;;;65.95;26.33;;;;;;;;;;6274217;28;20098;-64
2022/11/04 01:27:55;;;;;;;66.93;25.13;;;;;;;;;;6269953;28;20075;-66
2022/11/04 01:30:55;;;;;;;82.75;28.40;;;;;;;;;;6269408;28;20041;-66
2022/11/04 01:33:57;;;;;;;67.40;25.55;;;;;;;;;;6270203;28;20141;-69
2022/11/04 01:36:58;;;;;;;55.95;23.15;;;;;;;;;;6268220;28;20041;-68
2022/11/04 01:39:58;;;;;;;57.88;23.10;;;;;;;;;;6269419;28;20049;-70
2022/11/04 01:42:59;;;;;;;57.67;23.13;;;;;;;;;;6268244;28;20060;-67
2022/11/04 01:46:01;;;;;;;55.08;23.92;;;;;;;;;;6268004;28;20715;-68
2022/11/04 01:49:34;;;;;;;53.70;22.02;;;;;;;;;;6269059;28;20060;-70
2022/11/04 01:52:44;;;;;;;59.70;23.33;;;;;;;;;;6271577;28;20044;-67
2022/11/04 01:55:51;;;;;;;56.88;23.40;;;;;;;;;;6272732;28;20143;-66
2022/11/04 01:58:56;;;;;;;49.50;21.23;;;;;;;;;;6272323;28;20061;-66
2022/11/04 02:01:57;;;;;;;56.38;22.20;;;;;;;;;;6270230;28;20060;-66
2022/11/04 02:04:57;;;;;;;58.67;22.75;;;;;;;;;;6270498;28;20061;-67
2022/11/04 02:08:01;;;;;;;51.22;21.48;;;;;;;;;;6268633;28;20049;-66
2022/11/04 02:11:03;;;;;;;53.00;22.27;;;;;;;;;;6269589;28;20053;-70
2022/11/04 02:14:03;;;;;;;54.85;23.30;;;;;;;;;;6273279;28;20033;-67
2022/11/04 02:17:16;;;;;;;52.35;20.92;;;;;;;;;;6291940;28;20040;-66
2022/11/04 02:20:41;;;;;;;51.58;21.05;;;;;;;;;;6276012;28;20070;-66
2022/11/04 02:23:56;;;;;;;51.63;21.27;;;;;;;;;;6274482;28;20059;-66
2022/11/04 02:27:36;;;;;;;46.10;19.83;;;;;;;;;;6294663;28;20131;-66
2022/11/04 02:31:01;;;;;;;51.20;20.77;;;;;;;;;;6270082;28;20723;-68
2022/11/04 02:34:15;;;;;;;55.70;21.90;;;;;;;;;;6292372;28;20811;-67
2022/11/04 02:37:52;;;;;;;53.85;20.95;;;;;;;;;;6289786;28;20052;-68
2022/11/04 02:41:13;;;;;;;53.88;20.73;;;;;;;;;;6273735;28;20120;-68
2022/11/04 02:44:26;;;;;;;46.45;19.23;;;;;;;;;;6267770;28;20045;-67
2022/11/04 02:47:30;;;;;;;44.78;20.42;;;;;;;;;;6269132;28;20476;-66
2022/11/04 02:50:51;;;;;;;48.00;20.33;;;;;;;;;;6267772;28;20049;-66
2022/11/04 02:54:06;;;;;;;53.97;21.02;;;;;;;;;;6267902;28;20094;-66
2022/11/04 02:57:12;;;;;;;46.05;19.08;;;;;;;;;;6267025;28;20389;-68
2022/11/04 03:00:13;;;;;;;49.63;19.85;;;;;;;;;;6286811;28;20059;-67
2022/11/04 03:03:20;;;;;;;51.78;20.23;;;;;;;;;;6283848;28;20066;-68
2022/11/04 03:06:24;;;;;;;44.08;19.45;;;;;;;;;;6263406;28;20077;-68
2022/11/04 03:09:28;;;;;;;41.42;19.13;;;;;;;;;;6268447;28;20057;-69
2022/11/04 03:12:33;;;;;;;45.75;20.17;;;;;;;;;;6269631;28;20159;-69
2022/11/04 03:15:36;;;;;;;44.83;19.05;;;;;;;;;;6267158;28;20566;-69
2022/11/04 03:18:48;;;;;;;40.92;17.48;;;;;;;;;;6269358;28;20499;-67
2022/11/04 03:21:56;;;;;;;40.17;18.42;;;;;;;;;;6273759;28;20407;-66
2022/11/04 03:24:56;;;;;;;38.45;17.60;;;;;;;;;;6277483;28;20049;-66
2022/11/04 03:28:08;;;;;;;43.60;18.48;;;;;;;;;;6268068;28;20057;-67
2022/11/04 03:31:18;;;;;;;45.55;20.08;;;;;;;;;;6267248;28;20072;-70
2022/11/04 03:34:19;;;;;;;48.85;19.63;;;;;;;;;;6268507;28;20053;-67
2022/11/04 03:37:19;;;;;;;53.55;21.67;;;;;;;;;;6290033;28;20048;-68
2022/11/04 03:40:21;;;;;;;57.13;22.85;;;;;;;;;;6280334;28;20467;-66
2022/11/04 03:43:26;;;;;;;58.10;23.30;;;;;;;;;;6268515;28;20092;-68
2022/11/04 03:46:27;;;;;;;58.10;22.67;;;;;;;;;;6270043;28;20040;-66
2022/11/04 03:49:28;;;;;;;56.30;22.80;;;;;;;;;;6272279;28;20412;-69
2022/11/04 03:52:29;;;;;;;47.28;21.40;;;;;;;;;;6280401;28;20059;-66
2022/11/04 03:55:51;;;;;;;52.05;20.85;;;;;;;;;;6266663;28;20044;-68
2022/11/04 03:59:09;;;;;;;47.13;19.55;;;;;;;;;;6292924;28;20058;-69
2022/11/04 04:02:19;;;;;;;48.10;20.00;;;;;;;;;;6285026;28;20060;-69
2022/11/04 04:05:25;;;;;;;48.28;19.80;;;;;;;;;;6279243;28;20056;-67
2022/11/04 04:08:38;;;;;;;50.75;19.42;;;;;;;;;;6267268;28;20541;-65
2022/11/04 04:11:39;;;;;;;48.95;20.38;;;;;;;;;;6267947;28;20055;-69
2022/11/04 04:14:45;;;;;;;50.50;18.88;;;;;;;;;;6266020;28;20044;-67
2022/11/04 04:17:55;;;;;;;46.67;18.48;;;;;;;;;;6266792;28;20488;-67
2022/11/04 04:20:58;;;;;;;45.45;19.23;;;;;;;;;;6268554;28;20044;-68
2022/11/04 04:27:32;;;;;;;44.45;18.42;;;;;;;;;;6265258;28;20171;-66
2022/11/04 04:30:34;;;;;;;43.13;20.15;;;;;;;;;;6267815;28;20440;-67
2022/11/04 04:33:34;;;;;;;53.92;26.98;;;;;;;;;;6286584;28;20056;-66
2022/11/04 04:36:54;;;;;;;49.78;25.67;;;;;;;;;;6274572;28;20548;-66
2022/11/04 04:46:38;;;;;;;53.08;23.65;;;;;;;;;;6285093;28;20072;-66
2022/11/04 04:49:56;;;;;;;54.47;23.25;;;;;;;;;;6279561;28;20045;-69
2022/11/04 04:52:58;;;;;;;46.58;21.58;;;;;;;;;;6268809;28;20087;-66
2022/11/04 04:55:59;;;;;;;48.17;20.05;;;;;;;;;;6266906;28;20079;-65
2022/11/04 04:59:00;;;;;;;44.58;19.30;;;;;;;;;;6275030;28;20040;-66
2022/11/04 05:02:01;;;;;;;50.85;22.75;;;;;;;;;;6274052;28;20504;-66
2022/11/04 05:05:02;;;;;;;45.75;20.27;;;;;;;;;;6267577;28;20067;-67
2022/11/04 05:08:06;;;;;;;57.47;25.15;;;;;;;;;;6267674;28;20102;-64
2022/11/04 05:11:07;;;;;;;44.65;20.25;;;;;;;;;;6263261;28;20499;-70
2022/11/04 05:14:08;;;;;;;50.85;21.40;;;;;;;;;;6260872;28;20045;-66
2022/11/04 05:17:08;;;;;;;49.20;19.65;;;;;;;;;;6267810;28;20143;-69
2022/11/04 05:20:10;;;;;;;56.10;22.30;;;;;;;;;;6266378;28;20040;-71
2022/11/04 05:23:11;;;;;;;55.38;23.13;;;;;;;;;;6267375;28;20040;-66
2022/11/04 05:26:13;;;;;;;60.60;25.90;;;;;;;;;;6271025;28;20143;-68
2022/11/04 05:29:13;;;;;;;53.72;24.27;;;;;;;;;;6264757;28;20518;-68
2022/11/04 05:32:14;;;;;;;49.17;22.08;;;;;;;;;;6268447;28;20045;-67
2022/11/04 05:35:15;;;;;;;49.63;19.13;;;;;;;;;;6263105;28;20650;-67
2022/11/04 05:38:16;;;;;;;39.85;17.48;;;;;;;;;;6266370;28;20122;-66
2022/11/04 05:41:24;;;;;;;35.83;15.95;;;;;;;;;;6265787;28;20545;-66
2022/11/04 05:44:25;;;;;;;42.67;17.08;;;;;;;;;;6262457;28;20048;-66
2022/11/04 05:47:25;;;;;;;45.72;18.92;;;;;;;;;;6263591;28;20098;-68
2022/11/04 05:50:27;;;;;;;41.95;18.05;;;;;;;;;;6263887;28;20565;-69
2022/11/04 05:53:28;;;;;;;60.05;24.80;;;;;;;;;;6269874;28;20041;-66
2022/11/04 05:56:28;;;;;;;47.47;21.02;;;;;;;;;;6270383;28;20052;-63
2022/11/04 05:59:29;;;;;;;58.00;21.33;;;;;;;;;;6279106;28;20045;-66
2022/11/04 06:02:29;;;;;;;87.70;34.45;;;;;;;;;;6276753;28;20118;-67
2022/11/04 06:05:31;;;;;;;125.68;43.33;;;;;;;;;;6293203;28;20055;-65
2022/11/04 06:08:31;;;;;;;88.22;35.92;;;;;;;;;;6264524;28;20055;-69
2022/11/04 06:11:33;;;;;;;54.75;23.50;;;;;;;;;;6272059;28;21888;-71
2022/11/04 06:14:34;;;;;;;50.75;19.92;;;;;;;;;;6259575;28;20495;-70
2022/11/04 06:17:35;;;;;;;45.45;18.00;;;;;;;;;;6278480;28;20544;-66
2022/11/04 06:20:36;;;;;;;44.97;17.52;;;;;;;;;;6262234;28;20053;-77
2022/11/04 06:23:38;;;;;;;44.83;17.48;;;;;;;;;;6268963;28;20055;-66
2022/11/04 06:26:38;;;;;;;42.97;17.23;;;;;;;;;;6270574;28;20049;-67
2022/11/04 06:29:40;;;;;;;46.42;18.23;;;;;;;;;;6258053;28;20110;-69
2022/11/04 06:32:41;;;;;;;57.78;19.45;;;;;;;;;;6268666;28;20060;-65
2022/11/04 06:35:41;;;;;;;48.65;19.42;;;;;;;;;;6270750;28;20411;-70
2022/11/04 06:38:42;;;;;;;46.40;18.15;;;;;;;;;;6266517;28;20128;-68
2022/11/04 06:41:42;;;;;;;44.95;17.73;;;;;;;;;;6268963;28;20060;-66
2022/11/04 06:44:43;;;;;;;40.63;17.35;;;;;;;;;;6269384;28;20055;-67
2022/11/04 06:47:44;;;;;;;48.83;18.17;;;;;;;;;;6266817;28;20480;-66
2022/11/04 06:50:44;;;;;;;44.70;18.80;;;;;;;;;;6270989;28;20079;-67
2022/11/04 06:53:45;;;;;;;50.72;18.02;;;;;;;;;;6271952;28;20041;-69
2022/11/04 06:56:46;;;;;;;43.78;17.95;;;;;;;;;;6268467;28;21483;-67
2022/11/04 06:59:46;;;;;;;56.85;19.60;;;;;;;;;;6268391;28;20431;-67
2022/11/04 07:02:47;;;;;;;55.83;19.55;;;;;;;;;;6266397;28;20178;-68
2022/11/04 07:05:47;;;;;;;52.80;19.83;;;;;;;;;;6267058;28;20052;-67
2022/11/04 07:08:49;;;;;;;50.38;19.25;;;;;;;;;;6270856;28;20051;-69
2022/11/04 07:11:50;;;;;;;44.45;17.17;;;;;;;;;;6267756;28;20052;-70
2022/11/04 07:14:51;;;;;;;46.90;17.85;;;;;;;;;;6267673;28;20053;-67
2022/11/04 07:17:51;;;;;;;39.85;16.52;;;;;;;;;;6265746;28;20049;-69
2022/11/04 07:20:52;;;;;;;61.33;19.33;;;;;;;;;;6267011;28;20099;-68
2022/11/04 07:23:53;;;;;;;54.28;20.35;;;;;;;;;;6269561;28;20067;-66
2022/11/04 07:26:54;;;;;;;51.13;20.58;;;;;;;;;;6269321;28;20040;-65
2022/11/04 07:29:55;;;;;;;51.05;18.58;;;;;;;;;;6267941;28;20060;-69
2022/11/04 07:32:57;;;;;;;48.97;18.92;;;;;;;;;;6268654;28;20447;-67
2022/11/04 07:36:01;;;;;;;41.08;16.33;;;;;;;;;;6266473;28;20056;-68
2022/11/04 07:39:03;;;;;;;41.22;15.88;;;;;;;;;;6267320;28;20059;-71
2022/11/04 07:42:03;;;;;;;44.28;20.13;;;;;;;;;;6266926;28;20385;-71
2022/11/04 07:45:04;;;;;;;45.10;16.67;;;;;;;;;;6269308;28;20159;-66
2022/11/04 07:48:05;;;;;;;57.08;24.45;;;;;;;;;;6269869;28;20419;-69
2022/11/04 07:51:09;;;;;;;57.03;23.37;;;;;;;;;;6268028;28;20049;-71
2022/11/04 07:54:10;;;;;;;51.40;23.92;;;;;;;;;;6279037;28;20662;-68
2022/11/04 07:57:10;;;;;;;42.22;16.05;;;;;;;;;;6272294;28;20099;-69
2022/11/04 08:00:13;;;;;;;35.22;15.80;;;;;;;;;;6283261;28;20133;-67
2022/11/04 08:03:14;;;;;;;43.15;16.38;;;;;;;;;;6264208;28;20111;-69
2022/11/04 08:06:16;;;;;;;33.17;13.80;;;;;;;;;;6264719;28;20060;-67
2022/11/04 08:09:17;;;;;;;35.58;17.52;;;;;;;;;;6269530;28;20041;-67
2022/11/04 08:12:19;;;;;;;33.70;13.43;;;;;;;;;;6264712;28;20580;-66
2022/11/04 08:15:20;;;;;;;37.22;15.27;;;;;;;;;;6263436;28;20450;-67
2022/11/04 08:18:21;;;;;;;32.22;15.35;;;;;;;;;;6268594;28;20040;-67
2022/11/04 08:21:21;;;;;;;28.63;12.27;;;;;;;;;;6265287;28;20059;-71
2022/11/04 08:24:22;;;;;;;37.80;14.48;;;;;;;;;;6267875;28;20052;-70
2022/11/04 08:27:23;;;;;;;40.30;15.63;;;;;;;;;;6267582;28;20072;-69
2022/11/04 08:30:23;;;;;;;40.65;17.85;;;;;;;;;;6266863;28;20045;-71
2022/11/04 08:33:25;;;;;;;38.03;17.17;;;;;;;;;;6279491;28;20736;-69
2022/11/04 08:36:33;;;;;;;43.22;17.65;;;;;;;;;;6279532;28;20041;-70
2022/11/04 08:39:33;;;;;;;49.72;22.83;;;;;;;;;;6267588;28;20095;-71
2022/11/04 08:42:34;;;;;;;46.28;17.77;;;;;;;;;;6649869;22;20045;-73
2022/11/04 08:45:44;;;;;;;44.22;17.63;;;;;;;;;;6256859;28;20047;-77
2022/11/04 08:48:45;;;;;;;49.25;17.02;;;;;;;;;;6265832;28;20087;-78
2022/11/04 08:51:48;;;;;;;44.03;19.77;;;;;;;;;;6268498;28;20407;-77
2022/11/04 08:54:48;;;;;;;45.67;18.20;;;;;;;;;;6267020;28;20384;-75
2022/11/04 08:57:50;;;;;;;44.03;16.13;;;;;;;;;;6267831;28;20076;-75
2022/11/04 09:00:51;;;;;;;42.63;17.33;;;;;;;;;;6268467;28;20506;-74
2022/11/04 09:03:52;;;;;;;38.37;16.03;;;;;;;;;;6266070;28;20055;-76
2022/11/04 09:06:55;;;;;;;41.92;18.45;;;;;;;;;;6267503;28;20483;-68
2022/11/04 09:09:55;;;;;;;35.22;15.75;;;;;;;;;;6268602;28;20049;-74
2022/11/04 09:12:56;;;;;;;40.55;15.93;;;;;;;;;;6267270;28;20084;-75
2022/11/04 09:15:57;;;;;;;38.55;16.27;;;;;;;;;;6267610;28;20053;-74
2022/11/04 09:18:58;;;;;;;42.13;16.45;;;;;;;;;;6268285;28;20129;-72
2022/11/04 09:21:59;;;;;;;37.77;16.37;;;;;;;;;;6267970;28;20041;-76
2022/11/04 09:24:59;;;;;;;49.45;17.08;;;;;;;;;;6267626;28;20692;-73
2022/11/04 09:28:00;;;;;;;39.03;16.50;;;;;;;;;;6268346;28;20099;-75
2022/11/04 09:31:05;;;;;;;42.17;15.77;;;;;;;;;;6271462;28;20068;-75
2022/11/04 09:34:06;;;;;;;39.35;16.80;;;;;;;;;;6270331;28;20548;-75
2022/11/04 09:37:07;;;;;;;47.13;17.55;;;;;;;;;;6273079;28;20056;-74
2022/11/04 09:40:16;;;;;;;43.70;16.33;;;;;;;;;;6272763;28;20458;-69
2022/11/04 09:43:40;;;;;;;35.28;14.20;;;;;;;;;;6271996;28;20087;-75
2022/11/04 09:46:42;;;;;;;44.80;17.50;;;;;;;;;;6262030;28;20041;-72
2022/11/04 09:49:45;;;;;;;47.83;17.63;;;;;;;;;;6271202;28;20636;-75
2022/11/04 09:52:51;;;;;;;41.42;14.85;;;;;;;;;;6270798;28;20477;-72
2022/11/04 09:56:01;;;;;;;37.65;16.35;;;;;;;;;;6270073;28;20483;-74
2022/11/04 09:59:03;;;;;;;44.00;15.05;;;;;;;;;;6270188;28;20053;-72
2022/11/04 10:02:17;;;;;;;55.80;22.48;;;;;;;;;;6271119;28;20040;-74
2022/11/04 10:05:31;;;;;;;42.17;17.60;;;;;;;;;;6270695;28;20051;-74
2022/11/04 10:08:42;;;;;;;32.83;14.25;;;;;;;;;;6268846;28;20090;-74
2022/11/04 10:12:03;;;;;;;33.45;14.93;;;;;;;;;;6270594;28;20045;-73
2022/11/04 10:15:06;;;;;;;53.97;17.65;;;;;;;;;;6269176;28;20041;-74
2022/11/04 10:18:34;;;;;;;65.13;22.42;;;;;;;;;;6270349;28;20041;-74
2022/11/04 10:22:00;;;;;;;60.70;19.77;;;;;;;;;;6269174;28;20060;-72
2022/11/04 10:25:22;;;;;;;79.30;26.02;;;;;;;;;;6262765;28;20052;-73
2022/11/04 10:28:30;;;;;;;42.15;15.70;;;;;;;;;;6253058;28;20145;-74
2022/11/04 10:31:34;;;;;;;45.42;14.55;;;;;;;;;;6251340;28;20045;-73
2022/11/04 10:34:40;;;;;;;34.20;13.32;;;;;;;;;;6249580;28;20501;-73
2022/11/04 10:37:41;;;;;;;31.05;12.40;;;;;;;;;;6251548;28;20050;-74
2022/11/04 10:40:45;;;;;;;40.72;14.43;;;;;;;;;;6248646;28;20056;-74
2022/11/04 10:43:47;;;;;;;38.63;17.00;;;;;;;;;;6246147;28;20605;-74
2022/11/04 10:46:59;;;;;;;30.53;12.73;;;;;;;;;;6250371;28;20045;-73
2022/11/04 10:50:18;;;;;;;32.45;13.30;;;;;;;;;;6251709;28;20063;-72
2022/11/04 10:53:23;;;;;;;36.15;13.02;;;;;;;;;;6250374;28;20048;-73
2022/11/04 10:56:41;;;;;;;32.72;14.25;;;;;;;;;;6257438;28;20041;-74
2022/11/04 11:00:01;;;;;;;34.88;13.27;;;;;;;;;;6266378;28;20056;-72
2022/11/04 11:03:20;;;;;;;29.63;12.73;;;;;;;;;;6262818;28;20048;-72
2022/11/04 11:06:30;;;;;;;29.30;11.75;;;;;;;;;;6249545;28;20058;-72
2022/11/04 11:09:39;;;;;;;34.05;14.55;;;;;;;;;;6248242;28;20433;-74
2022/11/04 11:12:49;;;;;;;29.88;12.63;;;;;;;;;;6249804;28;20041;-73
2022/11/04 11:16:05;;;;;;;33.92;13.95;;;;;;;;;;6251709;28;20071;-72
2022/11/04 11:19:16;;;;;;;31.65;12.77;;;;;;;;;;6252431;28;20056;-74
2022/11/04 11:22:41;;;;;;;31.27;12.80;;;;;;;;;;6244051;28;20514;-72
2022/11/04 11:25:48;;;;;;;32.53;13.52;;;;;;;;;;6240906;28;20080;-72
2022/11/04 11:29:01;;;;;;;35.75;14.02;;;;;;;;;;6250195;28;20061;-73
2022/11/04 11:32:02;;;;;;;;;;;;;;;;;;6250423;28;20048;-74
2022/11/04 11:35:03;;;;;;;31.13;13.63;;;;;;;;;;6247479;28;19928;-73
2022/11/04 11:38:04;;;;;;;36.33;16.83;;;;;;;;;;6246951;28;20644;-72
2022/11/04 11:41:09;;;;;;;40.08;16.05;;;;;;;;;;6252332;28;20057;-73
2022/11/04 11:44:31;;;;;;;35.83;15.32;;;;;;;;;;6263082;28;20128;-74
2022/11/04 11:47:41;;;;;;;32.85;14.32;;;;;;;;;;6266952;28;20118;-70
2022/11/04 11:50:55;;;;;;;32.42;13.57;;;;;;;;;;6268705;28;20049;-70
2022/11/04 11:54:02;;;;;;;35.88;13.32;;;;;;;;;;6259221;28;20048;-67
2022/11/04 11:57:16;;;;;;;34.17;14.13;;;;;;;;;;6249020;28;20044;-73
2022/11/04 12:00:19;;;;;;;30.92;12.70;;;;;;;;;;6250257;28;20254;-75
2022/11/04 12:03:29;;;;;;;28.88;12.90;;;;;;;;;;6248554;28;20061;-74
2022/11/04 12:07:08;;;;;;;37.15;15.23;;;;;;;;;;6249108;28;20053;-73
2022/11/04 12:10:36;;;;;;;36.95;15.20;;;;;;;;;;6240343;28;20140;-75
2022/11/04 12:13:59;;;;;;;33.33;14.98;;;;;;;;;;6250130;28;20118;-74
2022/11/04 12:17:30;;;;;;;34.70;14.88;;;;;;;;;;6248618;28;20033;-74
2022/11/04 12:20:58;;;;;;;35.05;14.13;;;;;;;;;;6246526;28;21322;-73
2022/11/04 12:24:26;;;;;;;30.02;14.80;;;;;;;;;;6249657;28;20064;-73
2022/11/04 12:27:46;;;;;;;32.72;14.52;;;;;;;;;;6248121;28;20100;-74
2022/11/04 12:31:34;;;;;;;34.45;15.52;;;;;;;;;;6249966;28;20042;-73
2022/11/04 12:35:07;;;;;;;35.25;14.35;;;;;;;;;;6190057;28;20042;-74
2022/11/04 12:38:21;;;;;;;34.22;15.15;;;;;;;;;;6198690;28;20506;-74
2022/11/04 12:41:44;;;;;;;35.33;15.82;;;;;;;;;;6248583;28;20480;-74
2022/11/04 12:45:06;;;;;;;35.70;15.82;;;;;;;;;;6246781;28;20085;-73
2022/11/04 12:48:11;;;;;;;;;;;;;;;;;;6246822;28;20036;-74
2022/11/04 12:51:31;;;;;;;42.67;16.75;;;;;;;;;;6246872;28;20351;-74
2022/11/04 12:55:09;;;;;;;49.60;19.77;;;;;;;;;;6250893;28;20091;-74
2022/11/04 12:58:31;;;;;;;58.08;21.98;;;;;;;;;;6245077;28;20072;-73
2022/11/04 13:01:32;;;;;;;;;;;;;;;;;;6248013;28;21880;-74
2022/11/04 13:04:39;;;;;;;49.38;22.35;;;;;;;;;;6256632;28;19939;-74
2022/11/04 13:08:14;;;;;;;47.85;21.52;;;;;;;;;;6258338;28;20049;-74
2022/11/04 13:11:34;;;;;;;39.40;18.35;;;;;;;;;;6241798;28;20102;-75
2022/11/04 13:15:00;;;;;;;51.45;21.75;;;;;;;;;;6270865;28;20037;-75
2022/11/04 13:18:05;;;;;;;62.55;27.13;;;;;;;;;;6261621;28;20044;-73
2022/11/04 13:21:12;;;;;;;69.82;27.92;;;;;;;;;;6257333;28;20059;-74
2022/11/04 13:24:29;;;;;;;67.43;25.95;;;;;;;;;;6253482;28;20049;-73
2022/11/04 13:27:37;;;;;;;65.30;25.00;;;;;;;;;;6253385;28;20477;-73
2022/11/04 13:30:44;;;;;;;77.13;34.65;;;;;;;;;;6254054;28;20099;-73
2022/11/04 13:33:53;;;;;;;70.28;28.38;;;;;;;;;;6257818;28;20056;-74
2022/11/04 13:37:21;;;;;;;62.15;24.52;;;;;;;;;;6257519;28;20076;-73
2022/11/04 13:40:27;;;;;;;57.78;21.65;;;;;;;;;;6255473;28;20090;-74
2022/11/04 13:43:40;;;;;;;59.13;23.70;;;;;;;;;;6257775;28;20064;-74
2022/11/04 13:46:48;;;;;;;62.95;23.40;;;;;;;;;;6257311;28;20114;-74
2022/11/04 13:49:54;;;;;;;68.82;27.33;;;;;;;;;;6278605;28;20045;-75
2022/11/04 13:52:55;;;;;;;55.72;23.67;;;;;;;;;;6259066;28;20633;-75
2022/11/04 13:55:55;;;;;;;75.30;28.80;;;;;;;;;;6255095;28;20060;-74
2022/11/04 13:59:00;;;;;;;53.83;22.50;;;;;;;;;;6267368;28;20057;-71
2022/11/04 14:02:10;;;;;;;52.22;23.98;;;;;;;;;;6261168;28;20044;-76
2022/11/04 14:05:27;;;;;;;47.55;21.15;;;;;;;;;;6269348;28;20052;-75
2022/11/04 14:08:27;;;;;;;53.25;22.05;;;;;;;;;;6271333;28;20060;-75
2022/11/04 14:11:28;;;;;;;58.08;24.92;;;;;;;;;;6280290;28;20079;-74
2022/11/04 14:14:28;;;;;;;51.30;24.27;;;;;;;;;;6270963;28;20102;-75
2022/11/04 14:17:32;;;;;;;75.82;29.55;;;;;;;;;;6255578;28;20052;-75
2022/11/04 14:20:35;;;;;;;77.28;32.95;;;;;;;;;;6256597;28;20045;-73
2022/11/04 14:23:38;;;;;;;81.80;31.52;;;;;;;;;;6257518;28;20053;-74
2022/11/04 14:26:47;;;;;;;74.65;26.95;;;;;;;;;;6256060;28;20053;-74
2022/11/04 14:29:52;;;;;;;62.28;24.60;;;;;;;;;;6259599;28;20048;-74
2022/11/04 14:33:02;;;;;;;60.40;24.48;;;;;;;;;;6272667;28;20044;-74
2022/11/04 14:36:24;;;;;;;65.32;25.15;;;;;;;;;;6252585;28;20071;-74
2022/11/04 14:39:30;;;;;;;58.78;23.63;;;;;;;;;;6258447;28;20053;-77
2022/11/04 14:42:50;;;;;;;65.97;23.75;;;;;;;;;;6270044;28;20489;-75
2022/11/04 14:45:51;;;;;;;53.00;22.75;;;;;;;;;;6256445;28;20067;-77
2022/11/04 14:48:54;;;;;;;57.22;23.42;;;;;;;;;;6257156;28;20053;-74
2022/11/04 14:51:57;;;;;;;47.38;20.63;;;;;;;;;;6257083;28;20049;-75
2022/11/04 14:55:15;;;;;;;52.25;21.10;;;;;;;;;;6255534;28;20060;-75
2022/11/04 14:58:24;;;;;;;59.08;23.27;;;;;;;;;;6256059;28;20049;-75
2022/11/04 15:01:28;;;;;;;53.65;21.50;;;;;;;;;;6254832;28;20053;-74
2022/11/04 15:04:31;;;;;;;61.13;23.23;;;;;;;;;;6256523;28;20063;-74
2022/11/04 15:07:37;;;;;;;67.28;25.45;;;;;;;;;;6261072;28;20048;-75
2022/11/04 15:10:38;;;;;;;113.50;52.13;;;;;;;;;;6258453;28;20906;-75
2022/11/04 15:13:49;;;;;;;139.60;64.47;;;;;;;;;;6260613;28;20033;-75
2022/11/04 15:16:53;;;;;;;114.88;38.05;;;;;;;;;;6254051;28;20052;-75
2022/11/04 15:19:58;;;;;;;83.90;31.33;;;;;;;;;;6257122;28;20682;-73
2022/11/04 15:23:01;;;;;;;85.35;29.08;;;;;;;;;;6257866;28;20823;-72
2022/11/04 15:26:03;;;;;;;85.45;33.03;;;;;;;;;;6256500;28;20114;-74
2022/11/04 15:29:10;;;;;;;91.63;32.10;;;;;;;;;;6256270;28;20045;-72
2022/11/04 15:32:15;;;;;;;90.65;32.95;;;;;;;;;;6255311;28;20049;-71
2022/11/04 15:35:16;;;;;;;79.10;31.35;;;;;;;;;;6256538;28;20053;-74
2022/11/04 15:38:17;;;;;;;80.93;28.80;;;;;;;;;;6258918;28;20527;-74
2022/11/04 15:44:45;;;;;;;81.72;34.60;;;;;;;;;;6257670;28;20056;-74
2022/11/04 15:47:45;;;;;;;114.28;49.50;;;;;;;;;;6259905;28;20068;-75
2022/11/04 15:50:46;;;;;;;122.95;53.17;;;;;;;;;;6255533;28;20837;-73
2022/11/04 15:53:58;;;;;;;85.32;36.22;;;;;;;;;;6255184;28;20049;-73
2022/11/04 15:57:01;;;;;;;;;;;;;;;;;;6255501;28;20089;-72
2022/11/04 16:00:14;;;;;;;89.95;34.65;;;;;;;;;;6253748;28;20374;-72
2022/11/04 16:03:20;;;;;;;85.00;36.38;;;;;;;;;;6255117;28;20578;-73
2022/11/04 16:06:38;;;;;;;92.57;38.08;;;;;;;;;;6253008;28;20184;-73
2022/11/04 16:09:52;;;;;;;95.47;41.83;;;;;;;;;;6253491;28;20350;-74
2022/11/04 16:12:59;;;;;;;103.85;41.35;;;;;;;;;;6247882;28;20051;-73
2022/11/04 16:16:12;;;;;;;96.72;42.30;;;;;;;;;;6248077;28;20328;-75
2022/11/04 16:19:23;;;;;;;107.72;43.08;;;;;;;;;;6257095;28;20052;-72
2022/11/04 16:22:31;;;;;;;115.95;42.58;;;;;;;;;;6262300;28;20049;-73
2022/11/04 16:25:33;;;;;;;100.40;40.05;;;;;;;;;;6252343;28;20715;-74
2022/11/04 16:28:36;;;;;;;95.43;37.20;;;;;;;;;;6259826;28;20048;-74
2022/11/04 16:31:37;;;;;;;98.75;38.92;;;;;;;;;;6260263;28;20045;-74
2022/11/04 16:34:38;;;;;;;95.28;37.42;;;;;;;;;;6254173;28;20449;-72
2022/11/04 16:37:39;;;;;;;101.70;37.97;;;;;;;;;;6246644;28;20094;-72
2022/11/04 16:40:44;;;;;;;91.97;33.28;;;;;;;;;;6254806;28;20708;-72
2022/11/04 16:43:44;;;;;;;86.25;34.40;;;;;;;;;;6252717;28;20106;-74
2022/11/04 16:46:45;;;;;;;93.80;37.22;;;;;;;;;;6243951;28;20045;-74
2022/11/04 16:49:46;;;;;;;126.85;50.78;;;;;;;;;;6250322;28;20529;-72
2022/11/04 16:52:47;;;;;;;91.13;36.97;;;;;;;;;;6253944;28;20045;-74
2022/11/04 16:55:47;;;;;;;95.30;36.95;;;;;;;;;;6246833;28;20057;-73
2022/11/04 16:58:48;;;;;;;101.40;36.50;;;;;;;;;;6257600;28;20228;-73
2022/11/04 17:01:48;;;;;;;109.55;40.30;;;;;;;;;;6255608;28;20063;-74
2022/11/04 17:04:49;;;;;;;125.35;43.80;;;;;;;;;;6257114;28;20051;-72
2022/11/04 17:07:50;;;;;;;131.60;45.30;;;;;;;;;;6255695;28;20037;-74
2022/11/04 17:10:51;;;;;;;123.73;45.40;;;;;;;;;;6254236;28;20055;-72
2022/11/04 17:13:52;;;;;;;119.28;45.30;;;;;;;;;;6254141;28;20052;-77
2022/11/04 17:16:56;;;;;;;89.50;38.40;;;;;;;;;;6250015;28;20045;-77
2022/11/04 17:19:57;;;;;;;86.45;35.17;;;;;;;;;;6255418;28;20061;-75
2022/11/04 17:23:01;;;;;;;85.88;34.28;;;;;;;;;;6257141;28;20052;-75
2022/11/04 17:26:02;;;;;;;95.00;42.27;;;;;;;;;;6249834;28;20057;-73
2022/11/04 17:29:06;;;;;;;90.37;38.63;;;;;;;;;;6250074;28;20068;-77
2022/11/04 17:32:10;;;;;;;121.95;48.50;;;;;;;;;;6249631;28;20416;-77
2022/11/04 17:35:11;;;;;;;104.05;42.17;;;;;;;;;;6251284;28;20059;-74
2022/11/04 17:38:13;;;;;;;82.88;33.08;;;;;;;;;;6251541;28;20049;-72
2022/11/04 17:44:34;;;;;;;99.45;40.00;;;;;;;;;;6257493;28;20061;-72
2022/11/04 17:47:37;;;;;;;102.68;37.35;;;;;;;;;;6249085;28;20044;-75
2022/11/04 17:50:41;;;;;;;92.15;37.30;;;;;;;;;;6258949;28;20051;-74
2022/11/04 17:53:41;;;;;;;88.72;40.45;;;;;;;;;;6260434;28;20057;-75
2022/11/04 17:56:42;;;;;;;95.75;41.92;;;;;;;;;;6256219;28;20938;-74
2022/11/04 18:03:23;;;;;;;81.40;33.30;;;;;;;;;;6253643;28;20068;-74
2022/11/04 18:06:25;;;;;;;75.30;32.72;;;;;;;;;;6258507;28;20499;-71
2022/11/04 18:09:29;;;;;;;65.40;28.97;;;;;;;;;;6258023;28;20049;-74
2022/11/04 18:12:35;;;;;;;68.53;27.95;;;;;;;;;;6253978;28;20302;-76
2022/11/04 18:15:39;;;;;;;71.15;30.80;;;;;;;;;;6253298;28;20056;-75
2022/11/04 18:18:40;;;;;;;71.32;29.50;;;;;;;;;;6255921;28;20052;-74
2022/11/04 18:21:40;;;;;;;70.03;30.83;;;;;;;;;;6254610;28;20056;-72
2022/11/04 18:24:41;;;;;;;70.30;29.30;;;;;;;;;;6256987;28;20053;-75
2022/11/04 18:27:42;;;;;;;78.22;34.90;;;;;;;;;;6253099;28;20479;-75
2022/11/04 18:30:43;;;;;;;70.40;33.53;;;;;;;;;;6255222;28;20068;-74
2022/11/04 18:33:43;;;;;;;83.43;33.20;;;;;;;;;;6242062;28;20046;-75
2022/11/04 18:36:46;;;;;;;85.57;36.50;;;;;;;;;;6258047;28;20067;-75
2022/11/04 18:39:46;;;;;;;96.15;40.25;;;;;;;;;;6256758;28;20075;-75
2022/11/04 18:42:47;;;;;;;95.72;38.92;;;;;;;;;;6256198;28;20076;-74